createdAt,value
2022-08-08T00:01:12.859Z,61.51
2022-08-08T00:04:05.557Z,61.21
2022-08-08T00:06:47.526Z,60.04
2022-08-08T00:09:33.107Z,58.73
2022-08-08T00:12:09.735Z,56.41
2022-08-08T00:15:00.114Z,56.99
2022-08-08T00:18:01.687Z,59.56
2022-08-08T00:20:44.631Z,59.88
2022-08-08T00:23:25.303Z,59.33
2022-08-08T00:25:58.139Z,61.45
2022-08-08T00:28:35.515Z,58.06
2022-08-08T00:32:14.863Z,59.77
2022-08-08T00:34:46.368Z,62.12
2022-08-08T00:37:46.926Z,61.00
2022-08-08T00:41:12.382Z,61.58
2022-08-08T00:43:56.308Z,61.58
2022-08-08T00:46:57.389Z,60.60
2022-08-08T00:49:27.337Z,59.76
2022-08-08T00:52:19.996Z,60.27
2022-08-08T00:55:09.226Z,62.06
2022-08-08T00:57:58.827Z,59.61
2022-08-08T01:00:35.866Z,62.19
2022-08-08T01:04:01.012Z,61.20
2022-08-08T01:06:37.516Z,63.11
2022-08-08T01:09:35.873Z,63.21
2022-08-08T01:12:54.590Z,62.41
2022-08-08T01:15:54.281Z,61.40
2022-08-08T01:19:02.716Z,61.52
2022-08-08T01:22:12.578Z,59.36
2022-08-08T01:24:57.243Z,60.99
2022-08-08T01:27:44.062Z,59.37
2022-08-08T01:30:37.092Z,59.37
2022-08-08T01:33:53.813Z,61.50
2022-08-08T01:36:36.539Z,60.47
2022-08-08T01:39:24.182Z,60.75
2022-08-08T01:42:20.023Z,61.49
2022-08-08T01:45:03.052Z,61.83
2022-08-08T01:48:14.620Z,64.33
2022-08-08T01:51:48.636Z,62.58
2022-08-08T01:55:26.040Z,62.19
2022-08-08T01:57:19.568Z,62.14
2022-08-08T02:00:03.568Z,62.66
2022-08-08T02:03:50.495Z,62.42
2022-08-08T02:06:31.578Z,63.35
2022-08-08T02:09:18.262Z,64.99
2022-08-08T02:11:59.523Z,64.44
2022-08-08T02:14:49.823Z,65.96
2022-08-08T02:17:36.633Z,64.15
2022-08-08T02:21:01.104Z,63.67
2022-08-08T02:23:35.131Z,65.04
2022-08-08T02:26:03.409Z,63.06
2022-08-08T02:29:21.088Z,63.56
2022-08-08T02:31:58.575Z,64.82
2022-08-08T02:34:36.841Z,65.40
2022-08-08T02:37:52.875Z,64.48
2022-08-08T02:40:12.293Z,66.09
2022-08-08T02:44:37.277Z,65.00
2022-08-08T02:46:08.121Z,65.58
2022-08-08T02:49:06.010Z,65.25
2022-08-08T02:52:50.173Z,65.35
2022-08-08T02:55:19.744Z,64.53
2022-08-08T02:58:15.102Z,65.19
2022-08-08T03:00:58.290Z,65.46
2022-08-08T03:05:03.898Z,65.84
2022-08-08T03:06:40.697Z,66.17
2022-08-08T03:09:42.658Z,65.90
2022-08-08T03:12:36.488Z,66.59
2022-08-08T03:16:00.906Z,66.72
2022-08-08T03:18:08.334Z,66.93
2022-08-08T03:20:52.468Z,66.88
2022-08-08T03:23:23.839Z,66.44
2022-08-08T03:25:58.005Z,65.97
2022-08-08T03:28:44.554Z,66.31
2022-08-08T03:32:05.348Z,67.56
2022-08-08T03:34:18.639Z,66.92
2022-08-08T03:36:46.514Z,67.91
2022-08-08T03:39:15.996Z,67.39
2022-08-08T03:42:27.794Z,66.68
2022-08-08T03:44:38.603Z,67.20
2022-08-08T03:47:19.537Z,68.18
2022-08-08T03:50:00.947Z,67.28
2022-08-08T03:52:35.351Z,66.19
2022-08-08T03:55:56.288Z,66.10
2022-08-08T03:58:31.567Z,65.71
2022-08-08T04:01:20.785Z,65.40
2022-08-08T04:03:58.897Z,66.31
2022-08-08T04:06:29.866Z,66.76
2022-08-08T04:09:10.214Z,67.70
2022-08-08T04:11:48.652Z,67.53
2022-08-08T04:14:34.945Z,66.83
2022-08-08T04:17:04.400Z,66.51
2022-08-08T04:19:36.687Z,67.29
2022-08-08T04:22:04.494Z,68.34
2022-08-08T04:24:36.235Z,68.03
2022-08-08T04:27:07.391Z,67.41
2022-08-08T04:29:37.693Z,66.53
2022-08-08T04:32:10.676Z,67.53
2022-08-08T04:34:55.269Z,66.90
2022-08-08T04:37:31.659Z,67.65
2022-08-08T04:40:05.712Z,67.69
2022-08-08T04:42:55.923Z,68.26
2022-08-08T04:45:25.843Z,68.61
2022-08-08T04:47:58.615Z,67.94
2022-08-08T04:50:34.280Z,67.23
2022-08-08T04:53:52.173Z,66.76
2022-08-08T04:55:56.035Z,66.45
2022-08-08T04:58:26.333Z,66.59
2022-08-08T05:00:53.349Z,65.02
2022-08-08T05:04:11.316Z,64.85
2022-08-08T05:06:12.714Z,66.06
2022-08-08T05:08:42.719Z,65.51
2022-08-08T05:11:18.781Z,65.95
2022-08-08T05:13:58.109Z,66.84
2022-08-08T05:16:51.870Z,64.78
2022-08-08T05:20:11.635Z,65.14
2022-08-08T05:22:10.386Z,65.38
2022-08-08T05:24:41.204Z,63.93
2022-08-08T05:27:08.300Z,64.31
2022-08-08T05:29:37.699Z,64.76
2022-08-08T05:32:09.546Z,64.34
2022-08-08T05:34:50.282Z,63.60
2022-08-08T05:37:39.117Z,64.12
2022-08-08T05:40:14.677Z,63.05
2022-08-08T05:42:51.740Z,63.24
2022-08-08T05:45:25.149Z,62.80
2022-08-08T05:48:08.885Z,61.86
2022-08-08T05:50:36.783Z,61.43
2022-08-08T05:53:53.794Z,61.68
2022-08-08T05:56:09.545Z,62.55
2022-08-08T05:58:56.727Z,61.26
2022-08-08T06:01:55.424Z,60.53
2022-08-08T06:04:23.774Z,59.97
2022-08-08T06:06:56.643Z,60.13
2022-08-08T06:09:59.012Z,60.88
2022-08-08T06:12:30.052Z,60.98
2022-08-08T06:14:59.923Z,58.53
2022-08-08T06:17:32.168Z,58.93
2022-08-08T06:20:16.336Z,58.76
2022-08-08T06:22:46.298Z,61.58
2022-08-08T06:25:18.438Z,59.81
2022-08-08T06:28:13.121Z,60.79
2022-08-08T06:30:44.564Z,61.44
2022-08-08T06:33:13.326Z,58.88
2022-08-08T06:36:06.335Z,58.98
2022-08-08T06:38:40.993Z,58.65
2022-08-08T06:41:13.146Z,59.11
2022-08-08T06:43:41.552Z,57.48
2022-08-08T06:46:29.972Z,55.84
2022-08-08T06:48:57.597Z,57.02
2022-08-08T06:51:31.210Z,57.40
2022-08-08T06:54:22.749Z,54.59
2022-08-08T06:56:51.597Z,56.83
2022-08-08T06:59:20.099Z,57.66
2022-08-08T07:02:26.422Z,54.90
2022-08-08T07:04:58.607Z,53.45
2022-08-08T07:07:44.001Z,53.86
2022-08-08T07:10:13.020Z,55.55
2022-08-08T07:12:48.342Z,57.27
2022-08-08T07:16:06.128Z,56.65
2022-08-08T07:18:57.759Z,54.12
2022-08-08T07:21:31.022Z,55.84
2022-08-08T07:24:03.842Z,54.31
2022-08-08T07:26:54.300Z,52.89
2022-08-08T07:30:01.642Z,52.78
2022-08-08T07:32:15.714Z,53.23
2022-08-08T07:34:59.444Z,55.02
2022-08-08T07:37:49.588Z,53.58
2022-08-08T07:40:30.138Z,53.86
2022-08-08T07:43:04.224Z,55.11
2022-08-08T07:46:05.291Z,55.10
2022-08-08T07:48:29.701Z,53.67
2022-08-08T07:51:00.750Z,50.81
2022-08-08T07:54:01.487Z,48.78
2022-08-08T07:56:37.378Z,49.97
2022-08-08T07:59:14.222Z,53.19
2022-08-08T08:02:34.910Z,49.94
2022-08-08T08:04:49.370Z,48.92
2022-08-08T08:07:31.706Z,49.24
2022-08-08T08:10:03.021Z,47.60
2022-08-08T08:12:41.324Z,49.97
2022-08-08T08:15:15.142Z,49.65
2022-08-08T08:17:48.195Z,47.60
2022-08-08T08:20:18.439Z,47.66
2022-08-08T08:22:47.293Z,46.29
2022-08-08T08:25:16.882Z,47.85
2022-08-08T08:28:00.400Z,46.66
2022-08-08T08:30:29.981Z,45.51
2022-08-08T08:32:56.815Z,44.76
2022-08-08T08:38:18.191Z,45.45
2022-08-08T08:40:51.658Z,47.69
2022-08-08T08:43:26.899Z,47.01
2022-08-08T08:46:01.166Z,43.63
2022-08-08T08:48:35.097Z,43.66
2022-08-08T08:51:06.350Z,44.16
2022-08-08T08:53:56.649Z,46.31
2022-08-08T08:56:29.417Z,45.05
2022-08-08T08:59:09.092Z,45.25
2022-08-08T09:01:50.694Z,41.68
2022-08-08T09:04:30.928Z,43.54
2022-08-08T09:07:08.788Z,43.25
2022-08-08T09:09:47.679Z,44.58
2022-08-08T09:12:23.840Z,44.78
2022-08-08T09:14:53.974Z,43.13
2022-08-08T09:17:40.947Z,40.23
2022-08-08T09:22:01.322Z,40.19
2022-08-08T09:22:58.974Z,41.16
2022-08-08T09:25:36.350Z,42.10
2022-08-08T09:28:23.925Z,42.34
2022-08-08T09:31:12.361Z,39.57
2022-08-08T09:34:30.041Z,40.82
2022-08-08T09:36:30.047Z,42.43
2022-08-08T09:39:00.149Z,41.06
2022-08-08T09:41:55.087Z,40.20
2022-08-08T09:44:48.041Z,41.78
2022-08-08T09:48:02.282Z,41.65
2022-08-08T09:50:13.954Z,40.50
2022-08-08T09:52:56.402Z,38.65
2022-08-08T09:56:03.199Z,38.47
2022-08-08T09:58:26.330Z,39.62
2022-08-08T10:01:02.132Z,42.22
2022-08-08T10:03:42.197Z,41.55
2022-08-08T10:06:15.050Z,40.70
2022-08-08T10:08:49.966Z,37.72
2022-08-08T10:12:26.037Z,36.81
2022-08-08T10:14:10.764Z,36.67
2022-08-08T10:16:55.912Z,36.82
2022-08-08T10:19:57.193Z,35.52
2022-08-08T10:22:22.798Z,38.36
2022-08-08T10:24:55.374Z,37.65
2022-08-08T10:27:28.650Z,34.27
2022-08-08T10:30:03.943Z,33.90
2022-08-08T10:32:39.031Z,35.64
2022-08-08T10:36:07.624Z,35.22
2022-08-08T10:38:05.714Z,35.18
2022-08-08T10:40:38.081Z,32.10
2022-08-08T10:43:06.058Z,34.55
2022-08-08T10:45:56.108Z,33.14
2022-08-08T10:48:56.147Z,32.87
2022-08-08T10:51:40.712Z,34.18
2022-08-08T10:54:08.185Z,32.44
2022-08-08T10:56:43.232Z,32.92
2022-08-08T10:59:14.550Z,32.00
2022-08-08T11:01:46.135Z,32.24
2022-08-08T11:04:16.315Z,33.25
2022-08-08T11:06:47.419Z,31.11
2022-08-08T11:09:19.801Z,31.70
2022-08-08T11:12:06.382Z,31.94
2022-08-08T11:14:35.340Z,33.92
2022-08-08T11:17:03.958Z,33.04
2022-08-08T11:19:33.783Z,36.08
2022-08-08T11:22:01.180Z,32.97
2022-08-08T11:24:33.478Z,35.92
2022-08-08T11:27:19.987Z,36.49
2022-08-08T11:30:20.521Z,32.71
2022-08-08T11:32:40.305Z,32.23
2022-08-08T11:35:27.630Z,32.13
2022-08-08T11:38:38.661Z,33.65
2022-08-08T11:40:51.739Z,32.72
2022-08-08T11:43:21.777Z,32.43
2022-08-08T11:46:09.510Z,30.38
2022-08-08T11:48:41.127Z,30.99
2022-08-08T11:51:30.518Z,30.04
2022-08-08T11:54:01.166Z,29.79
2022-08-08T11:56:34.590Z,33.73
2022-08-08T11:59:11.942Z,31.03
2022-08-08T12:01:38.790Z,30.94
2022-08-08T12:04:06.841Z,31.41
2022-08-08T12:06:33.875Z,30.36
2022-08-08T12:09:17.260Z,30.02
2022-08-08T12:11:46.087Z,29.27
2022-08-08T12:14:23.968Z,33.26
2022-08-08T12:16:57.028Z,32.10
2022-08-08T12:19:31.148Z,31.23
2022-08-08T12:22:09.460Z,31.33
2022-08-08T12:24:51.462Z,30.93
2022-08-08T12:27:27.055Z,32.28
2022-08-08T12:30:02.620Z,34.86
2022-08-08T12:32:44.864Z,30.57
2022-08-08T12:35:22.764Z,29.95
2022-08-08T12:38:07.243Z,29.55
2022-08-08T12:40:54.142Z,29.24
2022-08-08T12:43:47.922Z,30.40
2022-08-08T12:46:25.997Z,31.30
2022-08-08T12:51:59.204Z,30.50
2022-08-08T12:54:29.596Z,30.84
2022-08-08T12:56:56.942Z,28.68
2022-08-08T12:59:45.267Z,28.90
2022-08-08T13:02:28.409Z,29.18
2022-08-08T13:04:58.038Z,30.96
2022-08-08T13:08:04.233Z,29.21
2022-08-08T13:10:33.579Z,29.79
2022-08-08T13:13:05.813Z,29.50
2022-08-08T13:15:35.802Z,31.00
2022-08-08T13:18:11.081Z,30.46
2022-08-08T13:20:45.406Z,29.79
2022-08-08T13:23:36.939Z,30.64
2022-08-08T13:26:14.664Z,32.29
2022-08-08T13:28:45.416Z,32.13
2022-08-08T13:31:16.276Z,30.04
2022-08-08T13:33:46.160Z,30.02
2022-08-08T13:36:14.188Z,29.02
2022-08-08T13:38:41.118Z,28.66
2022-08-08T13:41:15.901Z,28.58
2022-08-08T13:43:44.967Z,28.47
2022-08-08T13:46:27.334Z,27.20
2022-08-08T13:49:12.182Z,28.15
2022-08-08T13:51:56.089Z,27.13
2022-08-08T13:54:29.256Z,27.21
2022-08-08T13:57:12.840Z,29.59
2022-08-08T13:59:47.900Z,29.51
2022-08-08T14:02:20.481Z,30.02
2022-08-08T14:05:09.015Z,27.79
2022-08-08T14:07:49.954Z,27.51
2022-08-08T14:10:33.712Z,27.80
2022-08-08T14:13:31.296Z,26.80
2022-08-08T14:16:07.824Z,27.92
2022-08-08T14:18:53.809Z,27.50
2022-08-08T14:21:22.309Z,26.75
2022-08-08T14:24:04.421Z,27.37
2022-08-08T14:26:46.376Z,26.43
2022-08-08T14:29:26.973Z,25.74
2022-08-08T14:32:10.643Z,26.74
2022-08-08T14:34:42.718Z,26.63
2022-08-08T14:37:10.133Z,25.89
2022-08-08T14:40:06.669Z,26.73
2022-08-08T14:42:36.562Z,27.39
2022-08-08T14:45:33.711Z,26.67
2022-08-08T14:48:11.824Z,25.72
2022-08-08T14:50:42.966Z,25.79
2022-08-08T14:53:14.314Z,27.19
2022-08-08T14:55:43.005Z,26.29
2022-08-08T14:58:12.099Z,28.80
2022-08-08T15:00:45.016Z,26.47
2022-08-08T15:03:15.846Z,27.40
2022-08-08T15:05:54.246Z,26.08
2022-08-08T15:08:35.366Z,26.92
2022-08-08T15:11:11.035Z,26.33
2022-08-08T15:14:01.689Z,25.50
2022-08-08T15:16:28.145Z,24.98
2022-08-08T15:18:55.277Z,26.66
2022-08-08T15:21:22.113Z,25.19
2022-08-08T15:23:51.407Z,24.68
2022-08-08T15:26:20.190Z,25.78
2022-08-08T15:28:53.070Z,25.25
2022-08-08T15:31:56.367Z,26.49
2022-08-08T15:34:08.542Z,25.41
2022-08-08T15:36:47.485Z,26.46
2022-08-08T15:39:14.768Z,28.63
2022-08-08T15:41:44.116Z,28.51
2022-08-08T15:44:13.846Z,30.50
2022-08-08T15:46:45.406Z,29.19
2022-08-08T15:49:17.203Z,29.87
2022-08-08T15:51:43.829Z,26.24
2022-08-08T15:54:37.242Z,26.83
2022-08-08T15:56:57.105Z,27.44
2022-08-08T16:00:25.446Z,28.96
2022-08-08T16:02:13.421Z,27.27
2022-08-08T16:04:42.506Z,25.41
2022-08-08T16:07:09.249Z,26.56
2022-08-08T16:13:03.738Z,25.58
2022-08-08T16:13:28.301Z,27.08
2022-08-08T16:15:12.646Z,27.54
2022-08-08T16:18:06.786Z,25.03
2022-08-08T16:20:30.136Z,25.88
2022-08-08T16:22:56.832Z,26.23
2022-08-08T16:25:24.403Z,28.46
2022-08-08T16:28:34.113Z,26.96
2022-08-08T16:30:57.665Z,25.60
2022-08-08T16:33:29.651Z,23.57
2022-08-08T16:36:08.732Z,22.62
2022-08-08T16:38:44.491Z,21.33
2022-08-08T16:41:20.698Z,23.41
2022-08-08T16:43:51.739Z,22.66
2022-08-08T16:46:43.171Z,23.13
2022-08-08T16:49:08.070Z,24.30
2022-08-08T16:55:00.528Z,24.71
2022-08-08T16:55:00.965Z,25.80
2022-08-08T16:57:43.555Z,26.37
2022-08-08T17:00:06.200Z,26.96
2022-08-08T17:02:39.552Z,25.97
2022-08-08T17:05:08.044Z,27.53
2022-08-08T17:07:37.406Z,26.86
2022-08-08T17:10:08.037Z,26.10
2022-08-08T17:12:36.906Z,25.65
2022-08-08T17:15:20.559Z,25.83
2022-08-08T17:18:02.829Z,26.16
2022-08-08T17:20:39.557Z,26.80
2022-08-08T17:23:16.372Z,26.39
2022-08-08T17:25:53.438Z,26.84
2022-08-08T17:28:34.116Z,26.14
2022-08-08T17:31:01.831Z,27.62
2022-08-08T17:34:48.797Z,27.02
2022-08-08T17:36:28.670Z,28.91
2022-08-08T17:39:05.034Z,27.91
2022-08-08T17:41:48.537Z,27.65
2022-08-08T17:44:26.898Z,28.07
2022-08-08T17:46:55.479Z,30.74
2022-08-08T17:49:37.955Z,28.76
2022-08-08T17:52:09.659Z,27.83
2022-08-08T17:54:36.394Z,29.03
2022-08-08T17:57:03.517Z,29.64
2022-08-08T17:59:36.187Z,29.52
2022-08-08T18:02:18.870Z,29.99
2022-08-08T18:04:50.823Z,31.65
2022-08-08T18:08:15.622Z,31.47
2022-08-08T18:10:07.307Z,31.09
2022-08-08T18:12:34.442Z,31.42
2022-08-08T18:15:01.766Z,30.87
2022-08-08T18:18:27.502Z,31.76
2022-08-08T18:20:43.164Z,32.25
2022-08-08T18:23:03.302Z,30.48
2022-08-08T18:25:37.217Z,30.92
2022-08-08T18:28:05.505Z,31.66
2022-08-08T18:30:33.864Z,32.28
2022-08-08T18:33:02.543Z,32.28
2022-08-08T18:35:41.566Z,31.98
2022-08-08T18:38:17.347Z,31.65
2022-08-08T18:40:46.796Z,32.75
2022-08-08T18:43:16.533Z,32.96
2022-08-08T18:45:45.074Z,34.27
2022-08-08T18:48:31.056Z,36.24
2022-08-08T18:50:58.944Z,47.02
2022-08-08T18:54:02.954Z,49.72
2022-08-08T18:56:24.348Z,39.27
2022-08-08T18:58:53.734Z,45.95
2022-08-08T19:02:26.847Z,42.35
2022-08-08T19:04:10.686Z,41.20
2022-08-08T19:06:39.363Z,42.13
2022-08-08T19:09:13.367Z,41.12
2022-08-08T19:11:46.843Z,45.19
2022-08-08T19:14:20.652Z,36.24
2022-08-08T19:16:48.306Z,39.23
2022-08-08T19:19:15.959Z,43.23
2022-08-08T19:21:49.123Z,37.55
2022-08-08T19:24:38.678Z,40.93
2022-08-08T19:27:03.941Z,40.76
2022-08-08T19:29:31.091Z,44.88
2022-08-08T19:32:00.738Z,43.14
2022-08-08T19:34:36.186Z,44.42
2022-08-08T19:37:16.527Z,40.27
2022-08-08T19:39:45.498Z,42.67
2022-08-08T19:42:13.801Z,43.36
2022-08-08T19:44:46.366Z,43.46
2022-08-08T19:47:24.579Z,41.00
2022-08-08T19:49:59.592Z,44.46
2022-08-08T19:52:34.854Z,42.01
2022-08-08T19:55:11.518Z,43.07
2022-08-08T19:57:43.771Z,42.20
2022-08-08T20:00:30.692Z,41.54
2022-08-08T20:03:14.617Z,41.87
2022-08-08T20:06:15.655Z,41.42
2022-08-08T20:08:32.407Z,45.70
2022-08-08T20:11:03.812Z,40.35
2022-08-08T20:14:32.804Z,42.32
2022-08-08T20:16:20.356Z,40.66
2022-08-08T20:18:53.172Z,42.88
2022-08-08T20:21:25.821Z,45.14
2022-08-08T20:23:57.690Z,43.47
2022-08-08T20:26:27.376Z,45.17
2022-08-08T20:28:54.662Z,44.07
2022-08-08T20:31:22.744Z,41.24
2022-08-08T20:34:03.770Z,44.21
2022-08-08T20:36:38.583Z,44.06
2022-08-08T20:39:09.432Z,41.84
2022-08-08T20:41:36.730Z,43.59
2022-08-08T20:44:08.192Z,43.36
2022-08-08T20:46:35.802Z,44.82
2022-08-08T20:49:04.787Z,43.58
2022-08-08T20:51:33.015Z,42.24
2022-08-08T20:54:09.275Z,43.95
2022-08-08T20:57:04.401Z,44.06
2022-08-08T20:59:28.441Z,44.13
2022-08-08T21:02:07.161Z,43.59
2022-08-08T21:04:36.702Z,44.76
2022-08-08T21:07:08.286Z,43.14
2022-08-08T21:09:48.479Z,44.59
2022-08-08T21:12:33.368Z,44.22
2022-08-08T21:15:06.634Z,45.64
2022-08-08T21:17:35.708Z,53.14
2022-08-08T21:20:04.568Z,50.91
2022-08-08T21:22:31.661Z,51.43
2022-08-08T21:24:59.202Z,50.90
2022-08-08T21:28:05.263Z,52.51
2022-08-08T21:30:21.619Z,51.79
2022-08-08T21:32:53.322Z,53.56
2022-08-08T21:36:16.627Z,54.19
2022-08-08T21:38:16.580Z,54.65
2022-08-08T21:40:56.431Z,51.95
2022-08-08T21:43:32.995Z,54.63
2022-08-08T21:48:21.655Z,53.07
2022-08-08T21:48:55.535Z,50.78
2022-08-08T21:54:17.781Z,50.89
2022-08-08T21:54:37.220Z,55.21
2022-08-08T21:57:07.345Z,52.72
2022-08-08T22:00:01.850Z,55.33
2022-08-08T22:02:24.986Z,52.04
2022-08-08T22:04:56.073Z,56.52
2022-08-08T22:07:34.829Z,54.02
2022-08-08T22:10:09.860Z,53.83
2022-08-08T22:12:46.980Z,52.83
2022-08-08T22:15:14.137Z,53.24
2022-08-08T22:17:45.521Z,54.52
2022-08-08T22:20:18.769Z,54.46
2022-08-08T22:22:52.684Z,53.82
2022-08-08T22:25:25.160Z,55.69
2022-08-08T22:28:02.611Z,55.05
2022-08-08T22:30:31.631Z,51.69
2022-08-08T22:32:58.892Z,56.07
2022-08-08T22:36:04.560Z,54.98
2022-08-08T22:38:14.865Z,57.05
2022-08-08T22:40:45.151Z,52.76
2022-08-08T22:43:18.417Z,55.44
2022-08-08T22:45:46.593Z,56.56
2022-08-08T22:48:22.436Z,52.88
2022-08-08T22:50:49.734Z,54.46
2022-08-08T22:54:34.251Z,56.20
2022-08-08T22:56:04.916Z,55.48
2022-08-08T22:58:34.342Z,55.49
2022-08-08T23:01:30.182Z,55.90
2022-08-08T23:03:56.447Z,54.25
2022-08-08T23:06:24.815Z,54.33
2022-08-08T23:08:58.046Z,54.68
2022-08-08T23:11:31.420Z,53.87
2022-08-08T23:14:18.172Z,54.28
2022-08-08T23:16:57.461Z,54.66
2022-08-08T23:19:27.959Z,54.18
2022-08-08T23:22:00.655Z,55.74
2022-08-08T23:24:27.475Z,56.64
2022-08-08T23:27:03.310Z,56.13
2022-08-08T23:29:31.268Z,55.46
2022-08-08T23:31:58.399Z,56.41
2022-08-08T23:34:25.214Z,56.67
2022-08-08T23:36:58.146Z,56.47
2022-08-08T23:39:32.360Z,56.61
2022-08-08T23:42:09.164Z,54.84
2022-08-08T23:44:39.438Z,53.90
2022-08-08T23:49:03.735Z,53.90
2022-08-08T23:50:01.055Z,57.66
2022-08-08T23:52:31.055Z,56.37
2022-08-08T23:55:07.645Z,56.80
2022-08-08T23:57:52.514Z,57.40
